createdAt,value
2018-05-25T00:01:42.963Z,93.70
2018-05-25T00:05:39.451Z,93.80
2018-05-25T00:09:32.809Z,93.90
2018-05-25T00:13:25.943Z,94.00
2018-05-25T00:17:19.127Z,94.10
2018-05-25T00:21:13.652Z,94.40
2018-05-25T00:25:07.076Z,94.40
2018-05-25T00:29:00.237Z,94.50
2018-05-25T00:32:53.438Z,94.70
2018-05-25T00:36:47.413Z,94.60
2018-05-25T00:40:40.627Z,94.60
2018-05-25T00:44:34.374Z,94.50
2018-05-25T00:48:27.570Z,94.80
2018-05-25T00:52:20.761Z,94.90
2018-05-25T00:56:13.994Z,95.00
2018-05-25T01:00:07.111Z,94.90
2018-05-25T01:04:01.033Z,94.70
2018-05-25T01:07:54.189Z,94.60
2018-05-25T01:11:47.392Z,94.60
2018-05-25T01:15:40.532Z,94.50
2018-05-25T01:19:33.779Z,94.30
2018-05-25T01:23:27.002Z,94.60
2018-05-25T01:27:21.833Z,94.30
2018-05-25T01:31:15.041Z,94.30
2018-05-25T01:35:09.094Z,94.30
2018-05-25T01:39:03.128Z,94.30
2018-05-25T01:42:56.354Z,94.30
2018-05-25T01:46:49.556Z,94.20
2018-05-25T01:50:42.729Z,94.30
2018-05-25T01:54:36.053Z,94.20
2018-05-25T01:58:29.311Z,94.30
2018-05-25T02:02:23.195Z,94.50
2018-05-25T02:06:16.536Z,94.50
2018-05-25T02:10:09.708Z,94.50
2018-05-25T02:14:02.862Z,94.50
2018-05-25T02:17:56.287Z,94.50
2018-05-25T02:21:49.443Z,94.60
2018-05-25T02:25:42.867Z,94.80
2018-05-25T02:29:36.193Z,94.90
2018-05-25T02:33:29.479Z,94.90
2018-05-25T02:37:22.693Z,95.00
2018-05-25T02:41:16.032Z,95.10
2018-05-25T02:45:09.252Z,95.20
2018-05-25T02:49:02.831Z,95.40
2018-05-25T02:52:56.153Z,95.50
2018-05-25T02:56:49.375Z,95.60
2018-05-25T03:00:42.510Z,95.70
2018-05-25T03:04:35.657Z,95.90
2018-05-25T03:08:28.849Z,95.80
2018-05-25T03:12:22.726Z,95.60
2018-05-25T03:16:17.959Z,95.80
2018-05-25T03:20:11.146Z,95.70
2018-05-25T03:24:06.627Z,95.80
2018-05-25T03:28:00.513Z,95.90
2018-05-25T03:31:53.663Z,95.90
2018-05-25T03:35:46.875Z,95.90
2018-05-25T03:39:40.968Z,95.60
2018-05-25T03:43:34.801Z,95.60
2018-05-25T03:47:29.897Z,95.40
2018-05-25T03:51:23.066Z,95.30
2018-05-25T03:59:52.334Z,95.30
2018-05-25T04:03:45.546Z,95.40
2018-05-25T04:07:38.674Z,95.30
2018-05-25T04:11:32.194Z,95.40
2018-05-25T04:15:26.023Z,95.40
2018-05-25T04:19:19.238Z,95.40
2018-05-25T04:23:12.437Z,95.30
2018-05-25T04:27:06.009Z,95.20
2018-05-25T04:30:59.964Z,94.90
2018-05-25T04:34:53.210Z,94.90
2018-05-25T04:38:46.491Z,94.90
2018-05-25T04:42:39.609Z,94.80
2018-05-25T04:46:32.837Z,94.80
2018-05-25T04:50:26.025Z,94.80
2018-05-25T04:58:17.936Z,94.80
2018-05-25T05:02:11.139Z,94.90
2018-05-25T05:06:05.090Z,93.20
2018-05-25T05:09:58.277Z,93.20
2018-05-25T05:13:52.400Z,92.50
2018-05-25T05:17:46.480Z,92.50
2018-05-25T05:21:40.214Z,92.00
2018-05-25T05:25:33.404Z,91.70
2018-05-25T05:29:40.762Z,90.80
2018-05-25T05:33:41.247Z,90.70
2018-05-25T05:37:35.252Z,90.40
2018-05-25T05:41:29.056Z,90.10
2018-05-25T05:45:22.233Z,90.30
2018-05-25T05:49:18.614Z,90.50
2018-05-25T05:53:12.380Z,90.80
2018-05-25T05:57:05.615Z,90.80
2018-05-25T06:00:59.561Z,90.70
2018-05-25T06:04:53.030Z,90.50
2018-05-25T06:08:46.305Z,90.00
2018-05-25T06:12:39.550Z,88.70
2018-05-25T06:16:33.535Z,87.70
2018-05-25T06:20:26.723Z,87.70
2018-05-25T06:24:20.368Z,87.40
2018-05-25T06:28:14.543Z,86.30
2018-05-25T06:32:07.980Z,86.30
2018-05-25T06:36:00.635Z,86.40
2018-05-25T06:39:54.145Z,86.10
2018-05-25T06:43:48.237Z,86.40
2018-05-25T06:47:43.386Z,85.70
2018-05-25T06:51:39.339Z,84.10
2018-05-25T06:55:33.337Z,84.40
2018-05-25T06:59:27.891Z,83.60
2018-05-25T07:03:21.151Z,83.30
2018-05-25T07:07:18.582Z,83.00
2018-05-25T07:11:11.740Z,82.70
2018-05-25T07:15:08.186Z,82.90
2018-05-25T07:19:02.652Z,81.10
2018-05-25T07:22:56.104Z,81.10
2018-05-25T07:26:50.276Z,80.20
2018-05-25T07:30:44.948Z,79.10
2018-05-25T07:34:39.141Z,79.30
2018-05-25T07:38:32.463Z,79.60
2018-05-25T07:42:26.132Z,80.40
2018-05-25T07:46:20.286Z,80.00
2018-05-25T07:50:13.914Z,79.50
2018-05-25T07:54:07.375Z,79.60
2018-05-25T07:58:00.534Z,79.00
2018-05-25T08:01:53.696Z,79.50
2018-05-25T08:05:46.825Z,79.20
2018-05-25T08:09:40.765Z,78.60
2018-05-25T08:13:34.929Z,78.60
2018-05-25T08:17:28.915Z,76.60
2018-05-25T08:21:22.698Z,76.50
2018-05-25T08:25:16.090Z,75.70
2018-05-25T08:29:09.330Z,77.30
2018-05-25T08:33:04.003Z,76.70
2018-05-25T08:36:57.219Z,77.30
2018-05-25T08:40:50.710Z,76.90
2018-05-25T08:44:46.681Z,78.00
2018-05-25T08:48:39.848Z,77.40
2018-05-25T08:52:33.494Z,77.40
2018-05-25T08:56:27.436Z,79.10
2018-05-25T09:00:20.682Z,78.70
2018-05-25T09:04:20.300Z,78.70
2018-05-25T09:08:17.524Z,76.90
2018-05-25T09:12:10.945Z,75.90
2018-05-25T09:16:07.910Z,76.00
2018-05-25T09:20:01.189Z,74.60
2018-05-25T09:23:54.681Z,73.70
2018-05-25T09:27:47.885Z,72.60
2018-05-25T09:31:41.921Z,71.00
2018-05-25T09:35:35.118Z,71.10
2018-05-25T09:39:29.421Z,67.50
2018-05-25T09:43:24.479Z,67.60
2018-05-25T09:47:18.735Z,65.60
2018-05-25T09:51:15.919Z,64.30
2018-05-25T09:59:09.404Z,63.10
2018-05-25T10:03:05.479Z,63.30
2018-05-25T10:07:01.811Z,64.70
2018-05-25T10:10:55.957Z,66.20
2018-05-25T10:14:50.644Z,65.30
2018-05-25T10:18:49.310Z,64.80
2018-05-25T10:22:43.398Z,64.20
2018-05-25T10:26:37.129Z,64.10
2018-05-25T10:30:31.164Z,64.40
2018-05-25T10:34:25.212Z,62.70
2018-05-25T10:38:18.439Z,63.10
2018-05-25T10:42:12.440Z,63.70
2018-05-25T10:46:08.571Z,63.90
2018-05-25T10:50:01.761Z,65.30
2018-05-25T10:53:55.028Z,64.40
2018-05-25T10:57:49.166Z,64.50
2018-05-25T11:01:42.563Z,65.30
2018-05-25T11:05:35.752Z,65.90
2018-05-25T11:09:28.877Z,66.50
2018-05-25T11:13:22.244Z,64.50
2018-05-25T11:17:15.707Z,65.00
2018-05-25T11:21:10.629Z,64.00
2018-05-25T11:25:08.074Z,63.40
2018-05-25T11:29:01.604Z,62.90
2018-05-25T11:32:54.873Z,64.90
2018-05-25T11:36:48.648Z,64.70
2018-05-25T11:40:42.531Z,65.20
2018-05-25T11:44:35.966Z,64.70
2018-05-25T11:48:30.304Z,64.50
2018-05-25T11:52:23.594Z,63.90
2018-05-25T11:56:17.956Z,65.60
2018-05-25T12:00:11.104Z,65.10
2018-05-25T12:04:04.602Z,63.50
2018-05-25T12:07:58.103Z,64.50
2018-05-25T12:11:51.308Z,63.80
2018-05-25T12:15:45.191Z,61.90
2018-05-25T12:19:39.079Z,61.90
2018-05-25T12:23:32.238Z,59.70
2018-05-25T12:27:25.480Z,62.80
2018-05-25T12:31:18.636Z,63.60
2018-05-25T12:35:13.862Z,62.70
2018-05-25T12:39:07.730Z,62.30
2018-05-25T12:43:01.680Z,62.30
2018-05-25T12:46:54.857Z,62.30
2018-05-25T12:50:48.107Z,62.30
2018-05-25T12:54:42.119Z,59.90
2018-05-25T12:58:36.457Z,59.80
2018-05-25T13:02:33.003Z,58.90
2018-05-25T13:06:26.260Z,58.80
2018-05-25T13:10:20.970Z,57.30
2018-05-25T13:14:14.139Z,57.30
2018-05-25T13:18:07.823Z,56.40
2018-05-25T13:22:02.954Z,56.60
2018-05-25T13:25:56.635Z,56.60
2018-05-25T13:29:50.152Z,57.60
2018-05-25T13:33:43.362Z,57.40
2018-05-25T13:37:36.559Z,57.90
2018-05-25T13:41:29.709Z,59.60
2018-05-25T13:45:22.958Z,59.80
2018-05-25T13:49:16.607Z,59.60
2018-05-25T13:53:09.755Z,60.00
2018-05-25T13:57:05.589Z,59.10
2018-05-25T14:00:59.671Z,58.40
2018-05-25T14:04:53.068Z,58.40
2018-05-25T14:08:46.254Z,57.60
2018-05-25T14:12:39.399Z,56.80
2018-05-25T14:16:32.599Z,56.10
2018-05-25T14:20:26.425Z,55.50
2018-05-25T14:24:19.773Z,55.00
2018-05-25T14:28:13.776Z,55.60
2018-05-25T14:32:06.942Z,55.50
2018-05-25T14:36:00.348Z,56.90
2018-05-25T14:39:54.924Z,56.70
2018-05-25T14:43:48.130Z,56.30
2018-05-25T14:47:42.216Z,56.20
2018-05-25T14:51:35.351Z,54.60
2018-05-25T14:55:29.447Z,52.40
2018-05-25T14:59:23.340Z,53.40
2018-05-25T15:03:16.528Z,53.80
2018-05-25T15:07:11.415Z,54.10
2018-05-25T15:11:05.802Z,53.90
2018-05-25T15:15:00.688Z,53.80
2018-05-25T15:18:54.518Z,55.90
2018-05-25T15:22:49.592Z,57.00
2018-05-25T15:26:42.964Z,57.00
2018-05-25T15:30:36.150Z,57.20
2018-05-25T15:34:31.726Z,58.30
2018-05-25T15:38:26.223Z,58.30
2018-05-25T15:42:21.229Z,55.80
2018-05-25T15:46:14.357Z,56.50
2018-05-25T15:50:07.821Z,56.10
2018-05-25T15:54:02.325Z,56.30
2018-05-25T15:57:55.534Z,57.00
2018-05-25T16:01:48.748Z,57.10
2018-05-25T16:05:42.140Z,56.40
2018-05-25T16:09:36.151Z,55.80
2018-05-25T16:13:29.400Z,56.30
2018-05-25T16:17:23.538Z,57.60
2018-05-25T16:21:16.989Z,58.00
2018-05-25T16:25:10.273Z,58.60
2018-05-25T16:29:04.616Z,59.70
2018-05-25T16:32:59.754Z,59.80
2018-05-25T16:36:53.918Z,59.80
2018-05-25T16:40:47.134Z,59.20
2018-05-25T16:44:40.340Z,59.40
2018-05-25T16:48:34.199Z,59.40
2018-05-25T16:52:27.829Z,58.40
2018-05-25T16:56:20.993Z,57.80
2018-05-25T17:00:15.732Z,56.80
2018-05-25T17:04:09.104Z,56.70
2018-05-25T17:08:02.384Z,56.80
2018-05-25T17:11:55.754Z,56.60
2018-05-25T17:15:49.678Z,56.00
2018-05-25T17:19:43.565Z,56.70
2018-05-25T17:23:36.894Z,57.60
2018-05-25T17:27:31.302Z,57.30
2018-05-25T17:31:25.293Z,56.10
2018-05-25T17:35:19.133Z,56.40
2018-05-25T17:39:12.804Z,56.60
2018-05-25T17:43:06.074Z,56.30
2018-05-25T17:47:00.145Z,56.90
2018-05-25T17:50:53.424Z,57.80
2018-05-25T17:54:46.901Z,58.10
2018-05-25T17:58:40.065Z,58.40
2018-05-25T18:02:33.248Z,58.10
2018-05-25T18:06:26.446Z,58.50
2018-05-25T18:10:20.628Z,59.10
2018-05-25T18:14:14.105Z,59.40
2018-05-25T18:18:08.190Z,60.40
2018-05-25T18:22:02.148Z,60.60
2018-05-25T18:25:56.391Z,60.50
2018-05-25T18:29:49.606Z,61.50
2018-05-25T18:33:43.498Z,62.70
2018-05-25T18:37:36.783Z,62.70
2018-05-25T18:41:30.195Z,63.70
2018-05-25T18:45:26.198Z,65.00
2018-05-25T18:49:19.370Z,65.00
2018-05-25T18:53:12.849Z,66.30
2018-05-25T18:57:07.636Z,65.40
2018-05-25T19:01:07.272Z,66.00
2018-05-25T19:05:01.034Z,66.60
2018-05-25T19:08:59.994Z,67.10
2018-05-25T19:17:39.099Z,69.00
2018-05-25T19:21:32.770Z,69.80
2018-05-25T19:25:26.074Z,70.50
2018-05-25T19:29:19.293Z,71.10
2018-05-25T19:33:12.873Z,71.70
2018-05-25T19:37:06.038Z,72.20
2018-05-25T19:40:59.301Z,72.70
2018-05-25T19:44:53.244Z,73.70
2018-05-25T19:48:46.572Z,73.70
2018-05-25T19:52:39.888Z,74.20
2018-05-25T19:56:33.060Z,74.60
2018-05-25T20:00:26.176Z,75.20
2018-05-25T20:04:19.666Z,75.80
2018-05-25T20:08:12.866Z,76.10
2018-05-25T20:12:06.875Z,77.30
2018-05-25T20:16:01.170Z,78.20
2018-05-25T20:19:54.367Z,78.10
2018-05-25T20:23:47.527Z,78.60
2018-05-25T20:27:41.155Z,79.20
2018-05-25T20:31:36.113Z,80.40
2018-05-25T20:35:29.339Z,80.20
2018-05-25T20:39:23.426Z,80.80
2018-05-25T20:43:16.874Z,80.80
2018-05-25T20:47:10.902Z,81.60
2018-05-25T20:51:04.109Z,81.60
2018-05-25T20:54:57.421Z,82.00
2018-05-25T20:58:51.410Z,82.70
2018-05-25T21:02:44.514Z,82.70
2018-05-25T21:06:38.201Z,83.20
2018-05-25T21:10:31.448Z,83.40
2018-05-25T21:14:24.804Z,83.90
2018-05-25T21:18:18.160Z,84.20
2018-05-25T21:22:11.449Z,84.60
2018-05-25T21:26:06.252Z,85.20
2018-05-25T21:30:01.421Z,87.00
2018-05-25T21:33:54.696Z,86.20
2018-05-25T21:37:49.065Z,86.60
2018-05-25T21:41:42.384Z,86.90
2018-05-25T21:45:35.550Z,87.20
2018-05-25T21:49:28.722Z,87.60
2018-05-25T21:53:22.293Z,88.00
2018-05-25T21:57:15.764Z,88.40
2018-05-25T22:01:08.956Z,88.50
2018-05-25T22:05:02.562Z,89.00
2018-05-25T22:08:56.877Z,89.50
2018-05-25T22:12:51.490Z,89.40
2018-05-25T22:16:46.319Z,89.40
2018-05-25T22:20:40.228Z,90.20
2018-05-25T22:24:33.568Z,90.20
2018-05-25T22:28:27.512Z,90.50
2018-05-25T22:32:20.725Z,90.50
2018-05-25T22:36:14.272Z,90.70
2018-05-25T22:40:07.513Z,90.90
2018-05-25T22:44:12.642Z,91.20
2018-05-25T22:48:18.405Z,91.50
2018-05-25T22:52:15.701Z,91.50
2018-05-25T22:56:09.716Z,91.50
2018-05-25T23:00:03.784Z,91.50
2018-05-25T23:03:57.980Z,91.80
2018-05-25T23:07:51.243Z,91.80
2018-05-25T23:11:45.285Z,91.80
2018-05-25T23:15:38.551Z,91.80
2018-05-25T23:19:31.664Z,91.70
2018-05-25T23:23:25.454Z,92.10
2018-05-25T23:27:18.673Z,91.90
2018-05-25T23:31:13.650Z,92.10
2018-05-25T23:35:07.563Z,92.70
2018-05-25T23:39:00.833Z,92.70
2018-05-25T23:42:54.348Z,93.10
2018-05-25T23:46:48.009Z,93.30
2018-05-25T23:50:41.343Z,93.40
2018-05-25T23:54:35.417Z,93.60
2018-05-25T23:58:29.387Z,93.40
